EDT,Max TemperatureF,Mean TemperatureF,Min TemperatureF,Max Dew PointF,MeanDew PointF,Min DewpointF,Max Humidity, Mean Humidity, Min Humidity, Max Sea Level PressureIn, Mean Sea Level PressureIn, Min Sea Level PressureIn, Max VisibilityMiles, Mean VisibilityMiles, Min VisibilityMiles, Max Wind SpeedMPH, Mean Wind SpeedMPH, Max Gust SpeedMPH,PrecipitationIn, CloudCover, Events, WindDirDegrees
2011-10-1,59,52,44,54,44,37,87,81,76,29.91,29.81,29.72,10,8,3,21,9,30,0.00,8,Rain,349
2011-10-2,53,48,44,50,45,37,88,83,76,29.98,29.94,29.92,10,8,2,13,10,,0.00,8,Rain,352
2011-10-3,68,60,53,54,52,48,88,78,49,30.05,30.01,29.95,10,8,0,9,2,,0.00,8,Fog-Rain,337
2011-10-4,60,56,53,52,50,48,88,82,63,30.09,30.06,30.02,10,8,1,9,3,,0.00,7,Rain,331
2011-10-5,53,48,44,46,37,19,82,62,28,30.20,30.07,30.00,10,10,10,23,9,34,0.00,6,Rain,323
2011-10-6,50,44,37,28,23,18,65,46,28,30.33,30.28,30.23,10,10,10,15,9,26,0.00,0,,310
2011-10-7,64,48,32,39,32,28,93,65,26,30.45,30.39,30.34,10,10,7,6,2,,0.00,1,,212
2011-10-8,77,60,44,50,42,37,87,61,25,30.45,30.39,30.34,10,10,10,14,3,18,0.00,0,,224
2011-10-9,78,62,46,52,44,39,81,52,28,30.37,30.32,30.24,10,10,10,13,3,21,0.00,0,,239
2011-10-10,71,64,57,50,44,28,67,48,21,30.25,30.21,30.19,10,10,10,15,6,21,0.00,2,,290
2011-10-11,66,54,41,41,35,27,81,58,24,30.29,30.24,30.19,10,10,7,7,2,,0.00,0,,359
2011-10-12,64,53,42,45,40,37,81,65,45,30.22,30.18,30.10,10,9,1,14,5,16,0.00,0,,175
2011-10-13,62,56,51,54,46,41,82,72,67,30.07,29.97,29.84,10,10,4,9,5,,0.00,7,Rain,160
2011-10-14,68,60,53,59,54,48,88,80,73,29.79,29.65,29.42,10,9,2,10,2,,0.00,7,Rain,129
2011-10-15,60,54,48,55,45,36,82,71,47,29.42,29.33,29.19,10,9,3,21,7,30,0.00,7,Rain,193
2011-10-16,55,50,46,41,36,34,81,60,44,29.66,29.58,29.45,10,10,7,17,11,31,0.00,8,Rain,215
2011-10-17,53,47,41,43,36,32,81,66,44,29.60,29.55,29.49,10,10,4,15,7,26,0.00,5,Rain,211
2011-10-18,53,48,44,43,39,36,87,67,51,29.89,29.75,29.65,10,10,7,13,6,20,0.00,8,Rain,200
2011-10-19,55,48,41,43,40,36,87,71,51,30.02,29.95,29.87,10,10,5,13,3,23,0.00,5,Rain,102
2011-10-20,68,60,51,55,49,45,82,69,56,29.72,29.49,29.34,10,10,3,17,9,28,0.00,6,Rain,113
2011-10-21,53,50,46,46,41,37,82,71,62,29.91,29.74,29.55,10,10,5,10,4,,0.00,6,Rain,199
2011-10-22,50,48,46,41,38,36,81,72,58,30.05,29.98,29.90,10,10,5,8,2,,0.00,8,Rain,254
2011-10-23,50,46,42,37,36,32,81,67,50,30.11,30.07,30.05,10,10,10,6,2,,0.00,8,,219
2011-10-24,59,46,33,39,34,32,93,66,39,30.11,30.01,29.85,10,10,10,16,6,23,0.00,1,,183
2011-10-25,48,46,44,43,37,32,87,69,57,29.95,29.88,29.83,10,10,4,16,7,23,0.00,7,Rain,252
2011-10-26,48,42,37,32,30,27,75,59,43,29.82,29.80,29.79,10,10,10,10,3,,0.00,7,,346
2011-10-27,41,37,33,30,24,21,75,62,49,29.84,29.81,29.76,10,10,10,12,9,,0.00,7,,8
2011-10-28,42,37,32,23,20,18,69,53,36,30.15,30.05,29.91,10,10,10,14,6,21,0.00,4,,282
2011-10-29,41,34,26,27,23,19,80,65,45,30.27,30.20,30.07,10,10,10,10,4,,0.00,2,,341
2011-10-30,42,38,33,30,27,19,87,71,39,30.16,30.04,29.95,10,6,2,16,9,18,0.00,6,Snow,323
2011-10-31,51,42,32,32,28,23,87,64,35,30.34,30.30,30.23,10,10,10,12,4,,0.00,3,,179